sensor_id;sensor_type;location;lat;lon;timestamp;P1;durP1;ratioP1;P2;durP2;ratioP2
21501;SDS011;27639;48.674;9.242;2023-03-16T00:00:41;14.77;;;9.85;;
21501;SDS011;27639;48.674;9.242;2023-03-16T00:03:07;15.98;;;10.93;;
21501;SDS011;27639;48.674;9.242;2023-03-16T00:05:34;13.30;;;9.90;;
21501;SDS011;27639;48.674;9.242;2023-03-16T00:07:59;17.23;;;10.05;;
21501;SDS011;27639;48.674;9.242;2023-03-16T00:10:25;12.27;;;9.18;;
21501;SDS011;27639;48.674;9.242;2023-03-16T00:12:54;15.48;;;10.20;;
21501;SDS011;27639;48.674;9.242;2023-03-16T00:15:20;15.27;;;11.10;;
21501;SDS011;27639;48.674;9.242;2023-03-16T00:17:46;15.38;;;10.48;;
21501;SDS011;27639;48.674;9.242;2023-03-16T00:20:15;17.38;;;11.77;;
21501;SDS011;27639;48.674;9.242;2023-03-16T00:22:42;15.45;;;10.23;;
21501;SDS011;27639;48.674;9.242;2023-03-16T00:25:09;14.75;;;9.80;;
21501;SDS011;27639;48.674;9.242;2023-03-16T00:27:35;12.48;;;9.52;;
21501;SDS011;27639;48.674;9.242;2023-03-16T00:30:01;12.30;;;9.10;;
21501;SDS011;27639;48.674;9.242;2023-03-16T00:32:28;11.10;;;8.88;;
21501;SDS011;27639;48.674;9.242;2023-03-16T00:34:56;12.70;;;10.02;;
21501;SDS011;27639;48.674;9.242;2023-03-16T00:37:22;12.40;;;9.43;;
21501;SDS011;27639;48.674;9.242;2023-03-16T00:39:49;15.45;;;10.10;;
21501;SDS011;27639;48.674;9.242;2023-03-16T00:42:17;15.20;;;10.48;;
21501;SDS011;27639;48.674;9.242;2023-03-16T00:44:43;13.63;;;9.90;;
21501;SDS011;27639;48.674;9.242;2023-03-16T00:47:10;14.18;;;10.35;;
21501;SDS011;27639;48.674;9.242;2023-03-16T00:49:40;15.43;;;10.52;;
21501;SDS011;27639;48.674;9.242;2023-03-16T00:52:08;15.73;;;10.95;;
21501;SDS011;27639;48.674;9.242;2023-03-16T00:54:38;16.70;;;10.85;;
21501;SDS011;27639;48.674;9.242;2023-03-16T00:57:06;17.52;;;10.90;;
21501;SDS011;27639;48.674;9.242;2023-03-16T00:59:33;18.00;;;11.40;;
21501;SDS011;27639;48.674;9.242;2023-03-16T01:02:02;19.35;;;11.10;;
21501;SDS011;27639;48.674;9.242;2023-03-16T01:04:29;18.05;;;12.00;;
21501;SDS011;27639;48.674;9.242;2023-03-16T01:06:56;18.50;;;11.88;;
21501;SDS011;27639;48.674;9.242;2023-03-16T01:09:22;17.75;;;11.93;;
21501;SDS011;27639;48.674;9.242;2023-03-16T01:11:47;16.70;;;11.23;;
21501;SDS011;27639;48.674;9.242;2023-03-16T01:14:17;16.95;;;11.57;;
21501;SDS011;27639;48.674;9.242;2023-03-16T01:16:43;17.63;;;12.25;;
21501;SDS011;27639;48.674;9.242;2023-03-16T01:19:10;16.63;;;11.73;;
21501;SDS011;27639;48.674;9.242;2023-03-16T01:21:37;14.60;;;10.70;;
21501;SDS011;27639;48.674;9.242;2023-03-16T01:24:03;16.67;;;11.55;;
21501;SDS011;27639;48.674;9.242;2023-03-16T01:26:29;16.80;;;11.27;;
21501;SDS011;27639;48.674;9.242;2023-03-16T01:28:55;16.27;;;11.27;;
21501;SDS011;27639;48.674;9.242;2023-03-16T01:31:21;15.75;;;11.27;;
21501;SDS011;27639;48.674;9.242;2023-03-16T01:33:46;16.15;;;11.00;;
21501;SDS011;27639;48.674;9.242;2023-03-16T01:36:13;15.20;;;10.98;;
21501;SDS011;27639;48.674;9.242;2023-03-16T01:38:40;15.82;;;10.57;;
21501;SDS011;27639;48.674;9.242;2023-03-16T01:41:07;13.98;;;10.68;;
21501;SDS011;27639;48.674;9.242;2023-03-16T01:43:33;15.23;;;11.25;;
21501;SDS011;27639;48.674;9.242;2023-03-16T01:51:22;17.10;;;12.38;;
21501;SDS011;27639;48.674;9.242;2023-03-16T01:54:02;16.15;;;11.23;;
21501;SDS011;27639;48.674;9.242;2023-03-16T01:57:00;15.95;;;10.88;;
21501;SDS011;27639;48.674;9.242;2023-03-16T01:59:40;11.73;;;8.18;;
21501;SDS011;27639;48.674;9.242;2023-03-16T02:02:10;16.15;;;10.57;;
21501;SDS011;27639;48.674;9.242;2023-03-16T02:07:10;15.57;;;11.02;;
21501;SDS011;27639;48.674;9.242;2023-03-16T02:09:40;14.60;;;10.48;;
21501;SDS011;27639;48.674;9.242;2023-03-16T02:12:12;14.10;;;9.85;;
21501;SDS011;27639;48.674;9.242;2023-03-16T02:14:46;13.75;;;10.30;;
21501;SDS011;27639;48.674;9.242;2023-03-16T02:17:13;14.25;;;9.77;;
21501;SDS011;27639;48.674;9.242;2023-03-16T02:22:35;14.82;;;10.50;;
21501;SDS011;27639;48.674;9.242;2023-03-16T02:25:03;14.50;;;10.40;;
21501;SDS011;27639;48.674;9.242;2023-03-16T02:29:55;13.68;;;9.65;;
21501;SDS011;27639;48.674;9.242;2023-03-16T02:32:34;13.43;;;10.45;;
21501;SDS011;27639;48.674;9.242;2023-03-16T02:35:02;14.38;;;10.30;;
21501;SDS011;27639;48.674;9.242;2023-03-16T02:37:28;13.02;;;10.02;;
21501;SDS011;27639;48.674;9.242;2023-03-16T02:39:54;14.65;;;10.85;;
21501;SDS011;27639;48.674;9.242;2023-03-16T02:42:20;14.70;;;10.18;;
21501;SDS011;27639;48.674;9.242;2023-03-16T02:44:53;13.18;;;10.20;;
21501;SDS011;27639;48.674;9.242;2023-03-16T02:47:34;14.93;;;10.32;;
21501;SDS011;27639;48.674;9.242;2023-03-16T02:50:04;12.68;;;9.27;;
21501;SDS011;27639;48.674;9.242;2023-03-16T02:52:34;13.02;;;9.68;;
21501;SDS011;27639;48.674;9.242;2023-03-16T02:55:00;10.30;;;8.30;;
21501;SDS011;27639;48.674;9.242;2023-03-16T02:57:26;11.63;;;9.07;;
21501;SDS011;27639;48.674;9.242;2023-03-16T02:59:52;10.73;;;8.88;;
21501;SDS011;27639;48.674;9.242;2023-03-16T03:02:18;10.68;;;8.57;;
21501;SDS011;27639;48.674;9.242;2023-03-16T03:04:43;11.45;;;9.18;;
21501;SDS011;27639;48.674;9.242;2023-03-16T03:07:10;12.13;;;8.77;;
21501;SDS011;27639;48.674;9.242;2023-03-16T03:09:38;12.13;;;8.93;;
21501;SDS011;27639;48.674;9.242;2023-03-16T03:12:06;14.38;;;9.90;;
21501;SDS011;27639;48.674;9.242;2023-03-16T03:14:33;11.38;;;9.07;;
21501;SDS011;27639;48.674;9.242;2023-03-16T03:17:03;11.73;;;8.20;;
21501;SDS011;27639;48.674;9.242;2023-03-16T03:19:31;12.75;;;8.80;;
21501;SDS011;27639;48.674;9.242;2023-03-16T03:22:00;11.13;;;9.02;;
21501;SDS011;27639;48.674;9.242;2023-03-16T03:24:29;12.05;;;8.70;;
21501;SDS011;27639;48.674;9.242;2023-03-16T03:26:56;14.32;;;10.43;;
21501;SDS011;27639;48.674;9.242;2023-03-16T03:29:25;13.10;;;10.70;;
21501;SDS011;27639;48.674;9.242;2023-03-16T03:31:58;8.60;;;7.15;;
21501;SDS011;27639;48.674;9.242;2023-03-16T03:34:25;12.63;;;9.63;;
21501;SDS011;27639;48.674;9.242;2023-03-16T03:36:50;11.05;;;9.63;;
21501;SDS011;27639;48.674;9.242;2023-03-16T03:39:17;11.13;;;9.40;;
21501;SDS011;27639;48.674;9.242;2023-03-16T03:41:43;11.63;;;9.15;;
21501;SDS011;27639;48.674;9.242;2023-03-16T03:44:09;12.68;;;9.15;;
21501;SDS011;27639;48.674;9.242;2023-03-16T03:46:34;12.48;;;9.88;;
21501;SDS011;27639;48.674;9.242;2023-03-16T03:49:00;13.98;;;10.10;;
21501;SDS011;27639;48.674;9.242;2023-03-16T03:51:29;14.93;;;11.48;;
21501;SDS011;27639;48.674;9.242;2023-03-16T03:53:57;13.68;;;10.35;;
21501;SDS011;27639;48.674;9.242;2023-03-16T03:56:23;14.32;;;10.95;;
21501;SDS011;27639;48.674;9.242;2023-03-16T03:58:49;14.02;;;10.45;;
21501;SDS011;27639;48.674;9.242;2023-03-16T04:01:15;13.52;;;10.75;;
21501;SDS011;27639;48.674;9.242;2023-03-16T04:03:41;14.25;;;10.85;;
21501;SDS011;27639;48.674;9.242;2023-03-16T04:06:06;16.02;;;11.85;;
21501;SDS011;27639;48.674;9.242;2023-03-16T04:08:33;14.00;;;10.68;;
21501;SDS011;27639;48.674;9.242;2023-03-16T04:10:59;14.25;;;10.40;;
21501;SDS011;27639;48.674;9.242;2023-03-16T04:13:25;16.08;;;10.27;;
21501;SDS011;27639;48.674;9.242;2023-03-16T04:15:56;20.95;;;10.38;;
21501;SDS011;27639;48.674;9.242;2023-03-16T04:18:23;14.93;;;10.18;;
21501;SDS011;27639;48.674;9.242;2023-03-16T04:20:49;17.13;;;10.50;;
21501;SDS011;27639;48.674;9.242;2023-03-16T04:23:17;13.32;;;9.95;;
21501;SDS011;27639;48.674;9.242;2023-03-16T04:25:44;14.75;;;10.40;;
21501;SDS011;27639;48.674;9.242;2023-03-16T04:28:10;15.13;;;9.65;;
21501;SDS011;27639;48.674;9.242;2023-03-16T04:30:36;13.35;;;10.10;;
21501;SDS011;27639;48.674;9.242;2023-03-16T04:33:01;13.45;;;10.07;;
21501;SDS011;27639;48.674;9.242;2023-03-16T04:35:27;13.02;;;9.85;;
21501;SDS011;27639;48.674;9.242;2023-03-16T04:37:52;12.02;;;9.13;;
21501;SDS011;27639;48.674;9.242;2023-03-16T04:40:18;12.45;;;9.60;;
21501;SDS011;27639;48.674;9.242;2023-03-16T04:42:45;12.77;;;9.93;;
21501;SDS011;27639;48.674;9.242;2023-03-16T04:45:12;13.63;;;10.25;;
21501;SDS011;27639;48.674;9.242;2023-03-16T04:47:38;12.13;;;9.48;;
21501;SDS011;27639;48.674;9.242;2023-03-16T04:50:04;12.95;;;9.48;;
21501;SDS011;27639;48.674;9.242;2023-03-16T04:52:31;13.52;;;10.30;;
21501;SDS011;27639;48.674;9.242;2023-03-16T04:54:56;12.45;;;10.05;;
21501;SDS011;27639;48.674;9.242;2023-03-16T04:57:22;12.93;;;9.90;;
21501;SDS011;27639;48.674;9.242;2023-03-16T04:59:48;11.82;;;9.07;;
21501;SDS011;27639;48.674;9.242;2023-03-16T05:02:14;10.52;;;8.90;;
21501;SDS011;27639;48.674;9.242;2023-03-16T05:04:40;10.20;;;8.35;;
21501;SDS011;27639;48.674;9.242;2023-03-16T05:07:06;10.48;;;8.13;;
21501;SDS011;27639;48.674;9.242;2023-03-16T05:09:32;10.82;;;8.65;;
21501;SDS011;27639;48.674;9.242;2023-03-16T05:11:57;9.50;;;7.95;;
21501;SDS011;27639;48.674;9.242;2023-03-16T05:14:23;10.30;;;8.52;;
21501;SDS011;27639;48.674;9.242;2023-03-16T05:16:48;8.68;;;7.70;;
21501;SDS011;27639;48.674;9.242;2023-03-16T05:19:16;10.07;;;8.05;;
21501;SDS011;27639;48.674;9.242;2023-03-16T05:21:42;8.82;;;7.75;;
21501;SDS011;27639;48.674;9.242;2023-03-16T05:24:09;9.43;;;8.35;;
21501;SDS011;27639;48.674;9.242;2023-03-16T05:26:36;9.65;;;7.93;;
21501;SDS011;27639;48.674;9.242;2023-03-16T05:29:01;9.45;;;7.35;;
21501;SDS011;27639;48.674;9.242;2023-03-16T05:31:27;10.98;;;8.60;;
21501;SDS011;27639;48.674;9.242;2023-03-16T05:33:56;9.65;;;8.05;;
21501;SDS011;27639;48.674;9.242;2023-03-16T05:36:22;12.73;;;9.00;;
21501;SDS011;27639;48.674;9.242;2023-03-16T05:38:48;12.05;;;9.25;;
21501;SDS011;27639;48.674;9.242;2023-03-16T05:41:14;10.98;;;9.18;;
21501;SDS011;27639;48.674;9.242;2023-03-16T05:43:42;10.43;;;8.85;;
21501;SDS011;27639;48.674;9.242;2023-03-16T05:46:08;12.95;;;9.38;;
21501;SDS011;27639;48.674;9.242;2023-03-16T05:48:34;10.98;;;9.85;;
21501;SDS011;27639;48.674;9.242;2023-03-16T05:51:02;13.00;;;10.57;;
21501;SDS011;27639;48.674;9.242;2023-03-16T05:53:31;13.30;;;10.65;;
21501;SDS011;27639;48.674;9.242;2023-03-16T05:55:57;15.55;;;12.60;;
21501;SDS011;27639;48.674;9.242;2023-03-16T05:58:23;15.60;;;12.77;;
21501;SDS011;27639;48.674;9.242;2023-03-16T06:00:48;18.67;;;14.50;;
21501;SDS011;27639;48.674;9.242;2023-03-16T06:03:14;22.05;;;15.65;;
21501;SDS011;27639;48.674;9.242;2023-03-16T06:05:41;21.08;;;15.73;;
21501;SDS011;27639;48.674;9.242;2023-03-16T06:08:06;23.60;;;15.52;;
21501;SDS011;27639;48.674;9.242;2023-03-16T06:10:33;20.95;;;14.85;;
21501;SDS011;27639;48.674;9.242;2023-03-16T06:12:59;19.92;;;13.82;;
21501;SDS011;27639;48.674;9.242;2023-03-16T06:15:24;20.08;;;14.25;;
21501;SDS011;27639;48.674;9.242;2023-03-16T06:17:50;17.20;;;13.32;;
21501;SDS011;27639;48.674;9.242;2023-03-16T06:20:16;14.40;;;12.25;;
21501;SDS011;27639;48.674;9.242;2023-03-16T06:22:42;15.25;;;12.80;;
21501;SDS011;27639;48.674;9.242;2023-03-16T06:25:09;15.07;;;12.45;;
21501;SDS011;27639;48.674;9.242;2023-03-16T06:27:36;14.60;;;12.43;;
21501;SDS011;27639;48.674;9.242;2023-03-16T06:30:03;14.65;;;11.95;;
21501;SDS011;27639;48.674;9.242;2023-03-16T06:32:30;14.73;;;11.35;;
21501;SDS011;27639;48.674;9.242;2023-03-16T06:34:56;14.00;;;11.13;;
21501;SDS011;27639;48.674;9.242;2023-03-16T06:37:25;13.60;;;10.43;;
21501;SDS011;27639;48.674;9.242;2023-03-16T06:39:52;13.77;;;10.32;;
21501;SDS011;27639;48.674;9.242;2023-03-16T06:42:18;13.25;;;10.65;;
21501;SDS011;27639;48.674;9.242;2023-03-16T06:44:44;15.48;;;11.00;;
21501;SDS011;27639;48.674;9.242;2023-03-16T06:47:09;14.75;;;11.45;;
21501;SDS011;27639;48.674;9.242;2023-03-16T06:49:35;15.07;;;11.48;;
21501;SDS011;27639;48.674;9.242;2023-03-16T06:52:01;15.88;;;12.75;;
21501;SDS011;27639;48.674;9.242;2023-03-16T06:54:27;16.98;;;13.63;;
21501;SDS011;27639;48.674;9.242;2023-03-16T06:56:53;24.17;;;16.92;;
21501;SDS011;27639;48.674;9.242;2023-03-16T06:59:19;24.48;;;17.42;;
21501;SDS011;27639;48.674;9.242;2023-03-16T07:01:45;21.83;;;14.88;;
21501;SDS011;27639;48.674;9.242;2023-03-16T07:04:11;16.98;;;13.20;;
21501;SDS011;27639;48.674;9.242;2023-03-16T07:06:36;18.42;;;13.55;;
21501;SDS011;27639;48.674;9.242;2023-03-16T07:09:02;15.95;;;11.98;;
21501;SDS011;27639;48.674;9.242;2023-03-16T07:11:29;14.95;;;11.07;;
21501;SDS011;27639;48.674;9.242;2023-03-16T07:13:54;18.00;;;11.57;;
21501;SDS011;27639;48.674;9.242;2023-03-16T07:16:20;17.40;;;11.63;;
21501;SDS011;27639;48.674;9.242;2023-03-16T07:18:45;14.63;;;10.38;;
21501;SDS011;27639;48.674;9.242;2023-03-16T07:21:11;15.32;;;10.57;;
21501;SDS011;27639;48.674;9.242;2023-03-16T07:23:37;18.33;;;11.75;;
21501;SDS011;27639;48.674;9.242;2023-03-16T07:26:02;15.48;;;10.63;;
21501;SDS011;27639;48.674;9.242;2023-03-16T07:28:28;16.55;;;11.48;;
21501;SDS011;27639;48.674;9.242;2023-03-16T07:30:53;15.77;;;10.48;;
21501;SDS011;27639;48.674;9.242;2023-03-16T07:33:19;17.42;;;11.43;;
21501;SDS011;27639;48.674;9.242;2023-03-16T07:35:45;14.10;;;10.35;;
21501;SDS011;27639;48.674;9.242;2023-03-16T07:38:10;15.18;;;11.23;;
21501;SDS011;27639;48.674;9.242;2023-03-16T07:40:38;15.93;;;11.98;;
21501;SDS011;27639;48.674;9.242;2023-03-16T07:43:04;18.45;;;11.63;;
21501;SDS011;27639;48.674;9.242;2023-03-16T07:45:29;16.63;;;12.27;;
21501;SDS011;27639;48.674;9.242;2023-03-16T07:47:55;14.95;;;11.32;;
21501;SDS011;27639;48.674;9.242;2023-03-16T07:50:21;16.05;;;12.32;;
21501;SDS011;27639;48.674;9.242;2023-03-16T07:52:47;16.10;;;11.40;;
21501;SDS011;27639;48.674;9.242;2023-03-16T07:55:13;14.98;;;11.25;;
21501;SDS011;27639;48.674;9.242;2023-03-16T07:57:39;17.00;;;11.35;;
21501;SDS011;27639;48.674;9.242;2023-03-16T08:00:06;16.20;;;12.63;;
21501;SDS011;27639;48.674;9.242;2023-03-16T08:02:33;16.35;;;11.75;;
21501;SDS011;27639;48.674;9.242;2023-03-16T08:04:59;16.52;;;12.23;;
21501;SDS011;27639;48.674;9.242;2023-03-16T08:07:24;14.50;;;11.35;;
21501;SDS011;27639;48.674;9.242;2023-03-16T08:09:50;14.85;;;11.57;;
21501;SDS011;27639;48.674;9.242;2023-03-16T08:12:16;15.48;;;11.15;;
21501;SDS011;27639;48.674;9.242;2023-03-16T08:14:42;18.15;;;11.82;;
21501;SDS011;27639;48.674;9.242;2023-03-16T08:17:09;15.27;;;11.70;;
21501;SDS011;27639;48.674;9.242;2023-03-16T08:19:36;15.82;;;11.85;;
21501;SDS011;27639;48.674;9.242;2023-03-16T08:22:02;18.50;;;11.50;;
21501;SDS011;27639;48.674;9.242;2023-03-16T08:24:29;14.05;;;10.73;;
21501;SDS011;27639;48.674;9.242;2023-03-16T08:26:55;16.13;;;11.15;;
21501;SDS011;27639;48.674;9.242;2023-03-16T08:29:21;15.70;;;10.35;;
21501;SDS011;27639;48.674;9.242;2023-03-16T08:31:48;14.85;;;10.32;;
21501;SDS011;27639;48.674;9.242;2023-03-16T08:34:14;13.55;;;10.10;;
21501;SDS011;27639;48.674;9.242;2023-03-16T08:36:41;13.20;;;9.05;;
21501;SDS011;27639;48.674;9.242;2023-03-16T08:39:08;14.35;;;10.25;;
21501;SDS011;27639;48.674;9.242;2023-03-16T08:41:33;14.48;;;10.05;;
21501;SDS011;27639;48.674;9.242;2023-03-16T08:43:59;13.90;;;10.82;;
21501;SDS011;27639;48.674;9.242;2023-03-16T08:46:25;17.65;;;11.40;;
21501;SDS011;27639;48.674;9.242;2023-03-16T08:48:51;12.68;;;9.93;;
21501;SDS011;27639;48.674;9.242;2023-03-16T08:51:19;16.52;;;9.98;;
21501;SDS011;27639;48.674;9.242;2023-03-16T08:53:45;13.57;;;9.93;;
21501;SDS011;27639;48.674;9.242;2023-03-16T08:56:11;13.10;;;10.00;;
21501;SDS011;27639;48.674;9.242;2023-03-16T08:58:39;13.77;;;10.02;;
21501;SDS011;27639;48.674;9.242;2023-03-16T09:01:09;12.80;;;9.43;;
21501;SDS011;27639;48.674;9.242;2023-03-16T09:03:37;11.70;;;8.43;;
21501;SDS011;27639;48.674;9.242;2023-03-16T09:06:06;11.50;;;8.35;;
21501;SDS011;27639;48.674;9.242;2023-03-16T09:08:34;11.93;;;8.93;;
21501;SDS011;27639;48.674;9.242;2023-03-16T09:11:05;13.93;;;9.73;;
21501;SDS011;27639;48.674;9.242;2023-03-16T09:13:32;12.68;;;9.38;;
21501;SDS011;27639;48.674;9.242;2023-03-16T09:15:59;12.52;;;8.98;;
21501;SDS011;27639;48.674;9.242;2023-03-16T09:18:25;11.65;;;9.10;;
21501;SDS011;27639;48.674;9.242;2023-03-16T09:21:12;12.60;;;9.23;;
21501;SDS011;27639;48.674;9.242;2023-03-16T09:23:38;11.88;;;8.60;;
21501;SDS011;27639;48.674;9.242;2023-03-16T09:26:05;12.65;;;7.95;;
21501;SDS011;27639;48.674;9.242;2023-03-16T09:28:31;10.45;;;7.38;;
21501;SDS011;27639;48.674;9.242;2023-03-16T09:30:58;11.77;;;7.30;;
21501;SDS011;27639;48.674;9.242;2023-03-16T09:33:25;9.70;;;6.90;;
21501;SDS011;27639;48.674;9.242;2023-03-16T09:35:52;10.25;;;6.57;;
21501;SDS011;27639;48.674;9.242;2023-03-16T09:38:20;8.30;;;5.85;;
21501;SDS011;27639;48.674;9.242;2023-03-16T09:40:47;10.18;;;6.50;;
21501;SDS011;27639;48.674;9.242;2023-03-16T09:45:51;9.07;;;5.95;;
21501;SDS011;27639;48.674;9.242;2023-03-16T09:48:27;7.63;;;5.45;;
21501;SDS011;27639;48.674;9.242;2023-03-16T09:50:56;8.18;;;5.35;;
21501;SDS011;27639;48.674;9.242;2023-03-16T09:53:28;7.45;;;4.50;;
21501;SDS011;27639;48.674;9.242;2023-03-16T09:58:46;6.20;;;4.13;;
21501;SDS011;27639;48.674;9.242;2023-03-16T10:01:39;6.30;;;4.45;;
21501;SDS011;27639;48.674;9.242;2023-03-16T10:04:53;9.60;;;5.03;;
21501;SDS011;27639;48.674;9.242;2023-03-16T10:12:39;6.30;;;3.97;;
21501;SDS011;27639;48.674;9.242;2023-03-16T10:15:10;6.95;;;3.72;;
21501;SDS011;27639;48.674;9.242;2023-03-16T10:17:41;6.25;;;3.45;;
21501;SDS011;27639;48.674;9.242;2023-03-16T10:20:31;5.25;;;3.38;;
21501;SDS011;27639;48.674;9.242;2023-03-16T10:22:58;5.78;;;3.50;;
21501;SDS011;27639;48.674;9.242;2023-03-16T10:28:17;5.32;;;3.70;;
21501;SDS011;27639;48.674;9.242;2023-03-16T10:30:45;6.18;;;3.67;;
21501;SDS011;27639;48.674;9.242;2023-03-16T10:33:17;6.15;;;3.80;;
21501;SDS011;27639;48.674;9.242;2023-03-16T10:44:08;6.50;;;3.70;;
21501;SDS011;27639;48.674;9.242;2023-03-16T10:46:43;5.57;;;2.95;;
21501;SDS011;27639;48.674;9.242;2023-03-16T10:51:53;5.72;;;2.67;;
21501;SDS011;27639;48.674;9.242;2023-03-16T10:54:45;6.07;;;3.00;;
21501;SDS011;27639;48.674;9.242;2023-03-16T10:57:36;5.05;;;2.70;;
21501;SDS011;27639;48.674;9.242;2023-03-16T11:00:27;4.43;;;2.58;;
21501;SDS011;27639;48.674;9.242;2023-03-16T11:02:52;5.25;;;2.70;;
21501;SDS011;27639;48.674;9.242;2023-03-16T11:10:53;6.22;;;2.55;;
21501;SDS011;27639;48.674;9.242;2023-03-16T11:13:24;4.10;;;2.50;;
21501;SDS011;27639;48.674;9.242;2023-03-16T11:15:59;4.38;;;2.45;;
21501;SDS011;27639;48.674;9.242;2023-03-16T11:18:55;5.80;;;2.50;;
21501;SDS011;27639;48.674;9.242;2023-03-16T11:21:44;4.70;;;2.20;;
21501;SDS011;27639;48.674;9.242;2023-03-16T11:24:21;4.32;;;2.10;;
21501;SDS011;27639;48.674;9.242;2023-03-16T11:26:52;4.15;;;1.98;;
21501;SDS011;27639;48.674;9.242;2023-03-16T11:29:22;5.10;;;2.30;;
21501;SDS011;27639;48.674;9.242;2023-03-16T11:32:17;5.13;;;2.33;;
21501;SDS011;27639;48.674;9.242;2023-03-16T11:34:46;3.72;;;2.00;;
21501;SDS011;27639;48.674;9.242;2023-03-16T11:40:24;3.92;;;2.17;;
21501;SDS011;27639;48.674;9.242;2023-03-16T11:42:56;4.90;;;2.40;;
21501;SDS011;27639;48.674;9.242;2023-03-16T11:48:45;4.47;;;2.67;;
21501;SDS011;27639;48.674;9.242;2023-03-16T11:56:38;5.03;;;2.60;;
21501;SDS011;27639;48.674;9.242;2023-03-16T12:05:08;3.97;;;2.13;;
21501;SDS011;27639;48.674;9.242;2023-03-16T12:10:22;4.50;;;2.00;;
21501;SDS011;27639;48.674;9.242;2023-03-16T12:15:31;3.97;;;2.08;;
21501;SDS011;27639;48.674;9.242;2023-03-16T12:18:01;3.58;;;2.00;;
21501;SDS011;27639;48.674;9.242;2023-03-16T12:20:56;4.07;;;2.03;;
21501;SDS011;27639;48.674;9.242;2023-03-16T12:23:30;4.97;;;1.95;;
21501;SDS011;27639;48.674;9.242;2023-03-16T12:25:59;4.82;;;1.95;;
21501;SDS011;27639;48.674;9.242;2023-03-16T12:28:26;5.03;;;1.90;;
21501;SDS011;27639;48.674;9.242;2023-03-16T12:31:07;5.45;;;2.03;;
21501;SDS011;27639;48.674;9.242;2023-03-16T12:33:44;3.95;;;1.77;;
21501;SDS011;27639;48.674;9.242;2023-03-16T12:36:44;3.78;;;1.65;;
21501;SDS011;27639;48.674;9.242;2023-03-16T12:39:40;3.92;;;2.03;;
21501;SDS011;27639;48.674;9.242;2023-03-16T12:42:19;3.53;;;1.83;;
21501;SDS011;27639;48.674;9.242;2023-03-16T12:44:53;3.08;;;1.52;;
21501;SDS011;27639;48.674;9.242;2023-03-16T12:50:11;5.13;;;1.60;;
21501;SDS011;27639;48.674;9.242;2023-03-16T12:52:40;3.25;;;1.52;;
21501;SDS011;27639;48.674;9.242;2023-03-16T12:55:14;2.85;;;1.52;;
21501;SDS011;27639;48.674;9.242;2023-03-16T12:57:43;4.60;;;1.70;;
21501;SDS011;27639;48.674;9.242;2023-03-16T13:00:11;3.17;;;1.60;;
21501;SDS011;27639;48.674;9.242;2023-03-16T13:02:49;3.92;;;1.85;;
21501;SDS011;27639;48.674;9.242;2023-03-16T13:05:29;4.20;;;1.77;;
21501;SDS011;27639;48.674;9.242;2023-03-16T13:08:04;4.53;;;1.70;;
21501;SDS011;27639;48.674;9.242;2023-03-16T13:10:33;3.58;;;2.15;;
21501;SDS011;27639;48.674;9.242;2023-03-16T13:15:35;4.97;;;1.83;;
21501;SDS011;27639;48.674;9.242;2023-03-16T13:18:05;3.85;;;1.88;;
21501;SDS011;27639;48.674;9.242;2023-03-16T13:28:34;2.97;;;1.38;;
21501;SDS011;27639;48.674;9.242;2023-03-16T13:31:02;4.63;;;1.73;;
21501;SDS011;27639;48.674;9.242;2023-03-16T13:33:30;3.20;;;1.58;;
21501;SDS011;27639;48.674;9.242;2023-03-16T13:36:01;3.65;;;1.67;;
21501;SDS011;27639;48.674;9.242;2023-03-16T13:38:28;4.63;;;1.90;;
21501;SDS011;27639;48.674;9.242;2023-03-16T13:41:01;3.10;;;1.52;;
21501;SDS011;27639;48.674;9.242;2023-03-16T13:43:29;4.15;;;1.90;;
21501;SDS011;27639;48.674;9.242;2023-03-16T13:45:57;2.85;;;1.30;;
21501;SDS011;27639;48.674;9.242;2023-03-16T13:48:23;3.67;;;1.80;;
21501;SDS011;27639;48.674;9.242;2023-03-16T13:50:56;3.38;;;1.50;;
21501;SDS011;27639;48.674;9.242;2023-03-16T13:53:23;3.95;;;1.48;;
21501;SDS011;27639;48.674;9.242;2023-03-16T13:55:53;3.90;;;1.85;;
21501;SDS011;27639;48.674;9.242;2023-03-16T13:58:22;5.15;;;1.80;;
21501;SDS011;27639;48.674;9.242;2023-03-16T14:00:56;4.53;;;2.33;;
21501;SDS011;27639;48.674;9.242;2023-03-16T14:03:29;4.10;;;1.90;;
21501;SDS011;27639;48.674;9.242;2023-03-16T14:06:00;3.92;;;1.73;;
21501;SDS011;27639;48.674;9.242;2023-03-16T14:08:27;4.53;;;1.75;;
21501;SDS011;27639;48.674;9.242;2023-03-16T14:10:54;4.47;;;1.45;;
21501;SDS011;27639;48.674;9.242;2023-03-16T14:15:49;3.60;;;1.50;;
21501;SDS011;27639;48.674;9.242;2023-03-16T14:18:17;3.53;;;1.48;;
21501;SDS011;27639;48.674;9.242;2023-03-16T14:20:46;3.40;;;1.58;;
21501;SDS011;27639;48.674;9.242;2023-03-16T14:23:17;4.00;;;1.80;;
21501;SDS011;27639;48.674;9.242;2023-03-16T14:25:46;3.70;;;1.90;;
21501;SDS011;27639;48.674;9.242;2023-03-16T14:28:13;3.58;;;1.80;;
21501;SDS011;27639;48.674;9.242;2023-03-16T14:30:51;4.00;;;1.77;;
21501;SDS011;27639;48.674;9.242;2023-03-16T14:33:25;4.00;;;1.95;;
21501;SDS011;27639;48.674;9.242;2023-03-16T14:35:56;4.07;;;1.52;;
21501;SDS011;27639;48.674;9.242;2023-03-16T14:38:28;3.85;;;1.35;;
21501;SDS011;27639;48.674;9.242;2023-03-16T14:40:54;4.78;;;1.70;;
21501;SDS011;27639;48.674;9.242;2023-03-16T14:43:24;4.68;;;1.60;;
21501;SDS011;27639;48.674;9.242;2023-03-16T14:45:53;4.45;;;1.70;;
21501;SDS011;27639;48.674;9.242;2023-03-16T14:48:19;3.42;;;1.60;;
21501;SDS011;27639;48.674;9.242;2023-03-16T14:50:47;9.88;;;6.57;;
21501;SDS011;27639;48.674;9.242;2023-03-16T14:53:18;16.45;;;9.82;;
21501;SDS011;27639;48.674;9.242;2023-03-16T14:55:44;9.13;;;4.82;;
21501;SDS011;27639;48.674;9.242;2023-03-16T14:58:11;6.65;;;4.68;;
21501;SDS011;27639;48.674;9.242;2023-03-16T15:00:37;5.50;;;3.35;;
21501;SDS011;27639;48.674;9.242;2023-03-16T15:05:34;3.72;;;1.60;;
21501;SDS011;27639;48.674;9.242;2023-03-16T15:08:03;5.03;;;2.45;;
21501;SDS011;27639;48.674;9.242;2023-03-16T15:10:31;11.00;;;5.13;;
21501;SDS011;27639;48.674;9.242;2023-03-16T15:12:59;6.05;;;2.67;;
21501;SDS011;27639;48.674;9.242;2023-03-16T15:15:45;7.78;;;4.75;;
21501;SDS011;27639;48.674;9.242;2023-03-16T15:18:12;5.22;;;2.25;;
21501;SDS011;27639;48.674;9.242;2023-03-16T15:20:39;3.35;;;1.55;;
21501;SDS011;27639;48.674;9.242;2023-03-16T15:23:09;4.95;;;2.08;;
21501;SDS011;27639;48.674;9.242;2023-03-16T15:25:41;5.27;;;2.40;;
21501;SDS011;27639;48.674;9.242;2023-03-16T15:30:42;4.65;;;1.80;;
21501;SDS011;27639;48.674;9.242;2023-03-16T15:33:10;4.40;;;1.88;;
21501;SDS011;27639;48.674;9.242;2023-03-16T15:35:36;4.63;;;1.77;;
21501;SDS011;27639;48.674;9.242;2023-03-16T15:38:03;3.20;;;1.52;;
21501;SDS011;27639;48.674;9.242;2023-03-16T15:40:41;4.20;;;2.13;;
21501;SDS011;27639;48.674;9.242;2023-03-16T15:43:09;4.40;;;2.00;;
21501;SDS011;27639;48.674;9.242;2023-03-16T15:45:36;6.78;;;4.18;;
21501;SDS011;27639;48.674;9.242;2023-03-16T15:48:02;7.90;;;3.85;;
21501;SDS011;27639;48.674;9.242;2023-03-16T15:50:28;5.63;;;2.47;;
21501;SDS011;27639;48.674;9.242;2023-03-16T15:52:56;4.18;;;2.05;;
21501;SDS011;27639;48.674;9.242;2023-03-16T15:55:59;3.97;;;1.90;;
21501;SDS011;27639;48.674;9.242;2023-03-16T15:58:23;9.57;;;6.15;;
21501;SDS011;27639;48.674;9.242;2023-03-16T16:00:52;6.07;;;3.28;;
21501;SDS011;27639;48.674;9.242;2023-03-16T16:03:21;5.97;;;2.55;;
21501;SDS011;27639;48.674;9.242;2023-03-16T16:05:47;6.50;;;3.55;;
21501;SDS011;27639;48.674;9.242;2023-03-16T16:08:13;5.25;;;3.25;;
21501;SDS011;27639;48.674;9.242;2023-03-16T16:10:40;6.10;;;2.88;;